Ammanford, United Kingdom
Current Conditions -  °F | °C
As of 3:50 AM on Wednesday 22 Oct 2014 (Local Time) from EGOP Reporting Station
Scattered Clouds Scattered Clouds  
Wind Chill: 52°   Ceiling: Unl
Heat Index: 52°   Visibility: 6mi
Dew Point: 43°   Wind: 20mph
Humidity: 71%   Direction: 280°W
Pressure: 30.33"   Gusts: NA
Location:  51.79°N, 3.99°W
Report Text: EGOP 220250Z AUTO 28017KT 9999 // SCT050/// SCT100/// 11/06 Q1027
Loading
Personal Weather Stations






























Interactive Weather Map
Tropical Storm Tracking
New forecast layout! Learn more

10-Day Weather Forecast

Advertisements
Track Severe Weather on mobile